createdAt,value
2018-08-11T00:05:09.806Z,72
2018-08-11T00:10:38.610Z,71
2018-08-11T00:16:07.797Z,71
2018-08-11T00:21:36.990Z,71
2018-08-11T00:27:06.184Z,71
2018-08-11T00:32:40.496Z,71
2018-08-11T00:38:05.955Z,71
2018-08-11T00:43:39.857Z,71
2018-08-11T00:49:10.115Z,71
2018-08-11T00:54:35.412Z,71
2018-08-11T01:00:04.877Z,70
2018-08-11T01:05:39.810Z,70
2018-08-11T01:11:04.053Z,70
2018-08-11T01:16:33.512Z,70
2018-08-11T01:22:02.555Z,70
2018-08-11T01:27:37.985Z,70
2018-08-11T01:33:02.298Z,70
2018-08-11T01:38:31.473Z,70
2018-08-11T01:44:00.762Z,70
2018-08-11T01:49:29.649Z,70
2018-08-11T01:54:59.904Z,70
2018-08-11T02:00:35.312Z,71
2018-08-11T02:05:59.357Z,71
2018-08-11T02:11:28.511Z,71
2018-08-11T02:16:58.771Z,71
2018-08-11T02:16:59.294Z,71
2018-08-11T02:22:28.937Z,71
2018-08-11T02:22:30.098Z,71
2018-08-11T02:27:59.119Z,71
2018-08-11T02:33:28.672Z,71
2018-08-11T02:39:02.538Z,71
2018-08-11T02:44:27.748Z,71
2018-08-11T02:50:02.007Z,71
2018-08-11T02:55:32.492Z,71
2018-08-11T03:01:01.422Z,72
2018-08-11T03:06:30.510Z,72
2018-08-11T03:11:55.705Z,72
2018-08-11T03:17:24.867Z,72
2018-08-11T03:22:55.082Z,72
2018-08-11T03:28:25.246Z,72
2018-08-11T03:34:00.897Z,72
2018-08-11T03:39:25.821Z,73
2018-08-11T03:44:54.986Z,73
2018-08-11T03:50:23.836Z,74
2018-08-11T03:55:59.307Z,74
2018-08-11T04:01:23.122Z,75
2018-08-11T04:06:53.280Z,74
2018-08-11T04:12:27.385Z,73
2018-08-11T04:17:57.502Z,73
2018-08-11T04:23:22.918Z,73
2018-08-11T04:28:56.752Z,73
2018-08-11T04:34:21.184Z,73
2018-08-11T04:39:51.010Z,73
2018-08-11T04:45:20.244Z,73
2018-08-11T04:50:50.506Z,74
2018-08-11T04:56:25.685Z,74
2018-08-11T05:01:50.599Z,74
2018-08-11T05:07:25.137Z,74
2018-08-11T05:12:49.769Z,74
2018-08-11T05:18:18.907Z,74
2018-08-11T05:23:48.047Z,75
2018-08-11T05:29:17.343Z,75
2018-08-11T05:34:51.384Z,75
2018-08-11T05:40:15.506Z,75
2018-08-11T05:45:44.596Z,75
2018-08-11T05:51:19.923Z,75
2018-08-11T05:56:44.230Z,75
2018-08-11T06:02:14.126Z,75
2018-08-11T06:07:43.321Z,76
2018-08-11T06:13:17.505Z,76
2018-08-11T06:18:41.654Z,76
2018-08-11T06:24:16.961Z,76
2018-08-11T06:29:42.048Z,76
2018-08-11T06:35:12.476Z,76
2018-08-11T06:40:48.853Z,76
2018-08-11T06:46:11.885Z,76
2018-08-11T06:51:40.871Z,76
2018-08-11T06:57:11.142Z,76
2018-08-11T07:02:41.672Z,76
2018-08-11T07:08:16.016Z,76
2018-08-11T07:13:40.970Z,77
2018-08-11T07:19:11.261Z,77
2018-08-11T07:24:40.557Z,77
2018-08-11T07:30:15.890Z,76
2018-08-11T07:35:41.157Z,76
2018-08-11T07:41:10.756Z,77
2018-08-11T07:46:45.927Z,76
2018-08-11T07:52:15.238Z,76
2018-08-11T07:57:40.489Z,76
2018-08-11T08:03:10.042Z,78
2018-08-11T08:03:10.291Z,78
2018-08-11T08:08:39.451Z,78
2018-08-11T08:14:13.379Z,79
2018-08-11T08:19:43.890Z,79
2018-08-11T08:25:09.170Z,79
2018-08-11T08:30:38.426Z,79
2018-08-11T08:36:08.367Z,79
2018-08-11T08:41:43.679Z,78
2018-08-11T08:47:08.254Z,78
2018-08-11T08:52:37.168Z,79
2018-08-11T08:58:07.382Z,79
2018-08-11T09:03:37.596Z,79
2018-08-11T09:09:13.323Z,79
2018-08-11T09:14:43.014Z,79
2018-08-11T09:20:07.293Z,78
2018-08-11T09:25:36.457Z,78
2018-08-11T09:31:05.777Z,77
2018-08-11T09:36:36.119Z,77
2018-08-11T09:42:11.470Z,77
2018-08-11T09:47:35.809Z,79
2018-08-11T09:53:05.445Z,80
2018-08-11T09:58:35.696Z,80
2018-08-11T10:04:11.090Z,80
2018-08-11T10:09:34.805Z,80
2018-08-11T10:15:05.361Z,79
2018-08-11T10:20:39.606Z,79
2018-08-11T10:26:03.824Z,78
2018-08-11T10:31:34.341Z,78
2018-08-11T10:37:03.430Z,79
2018-08-11T10:42:39.107Z,81
2018-08-11T10:48:03.078Z,81
2018-08-11T10:53:37.403Z,82
2018-08-11T10:59:02.711Z,81
2018-08-11T11:04:31.903Z,82
2018-08-11T11:10:01.318Z,83
2018-08-11T11:15:36.306Z,83
2018-08-11T11:21:06.917Z,83
2018-08-11T11:26:31.613Z,83
2018-08-11T11:32:01.479Z,83
2018-08-11T11:37:29.922Z,82
2018-08-11T11:43:00.206Z,82
2018-08-11T11:48:30.686Z,81
2018-08-11T11:54:24.937Z,81
2018-08-11T11:59:31.060Z,82
2018-08-11T12:05:00.664Z,82
2018-08-11T12:10:29.759Z,83
2018-08-11T12:16:04.120Z,83
2018-08-11T12:21:28.440Z,85
2018-08-11T12:26:57.589Z,85
2018-08-11T12:32:32.777Z,85
2018-08-11T12:37:57.432Z,85
2018-08-11T12:43:26.105Z,85
2018-08-11T12:48:56.388Z,84
2018-08-11T12:54:31.141Z,84
2018-08-11T12:59:55.770Z,84
2018-08-11T13:00:21.616Z,84
2018-08-11T13:05:31.118Z,83
2018-08-11T13:10:56.675Z,84
2018-08-11T13:16:26.693Z,84
2018-08-11T13:21:57.155Z,83
2018-08-11T13:27:26.396Z,84
2018-08-11T13:33:00.702Z,84
2018-08-11T13:38:30.317Z,84
2018-08-11T13:43:55.621Z,84
2018-08-11T13:49:30.938Z,84
2018-08-11T13:54:59.851Z,84
2018-08-11T14:00:24.099Z,82
2018-08-11T14:05:53.757Z,82
2018-08-11T14:11:24.037Z,84
2018-08-11T14:16:54.378Z,84
2018-08-11T14:22:24.587Z,83
2018-08-11T14:27:53.890Z,83
2018-08-11T14:28:29.706Z,83
2018-08-11T14:33:24.083Z,82
2018-08-11T14:34:31.843Z,82
2018-08-11T14:38:58.267Z,81
2018-08-11T14:44:23.129Z,81
2018-08-11T14:49:51.862Z,80
2018-08-11T14:55:22.554Z,79
2018-08-11T15:00:57.668Z,79
2018-08-11T15:06:23.080Z,79
2018-08-11T15:11:52.524Z,78
2018-08-11T15:17:28.243Z,78
2018-08-11T15:22:52.392Z,77
2018-08-11T15:28:23.143Z,78
2018-08-11T15:33:52.292Z,77
2018-08-11T15:39:21.915Z,77
2018-08-11T15:39:22.502Z,77
2018-08-11T15:44:52.360Z,77
2018-08-11T15:50:21.484Z,76
2018-08-11T15:55:51.979Z,76
2018-08-11T16:01:26.416Z,75
2018-08-11T16:06:50.796Z,75
2018-08-11T16:12:20.700Z,75
2018-08-11T16:17:49.632Z,75
2018-08-11T16:23:20.132Z,75
2018-08-11T16:28:50.484Z,74
2018-08-11T16:34:19.826Z,74
2018-08-11T16:34:20.396Z,74
2018-08-11T16:39:49.321Z,73
2018-08-11T16:45:33.878Z,73
2018-08-11T16:50:49.396Z,73
2018-08-11T16:56:18.783Z,73
2018-08-11T17:01:53.908Z,73
2018-08-11T17:07:19.275Z,73
2018-08-11T17:12:48.657Z,73
2018-08-11T17:18:18.008Z,73
2018-08-11T17:23:48.645Z,73
2018-08-11T17:29:17.786Z,73
2018-08-11T17:34:47.339Z,73
2018-08-11T17:40:22.468Z,73
2018-08-11T17:45:47.986Z,73
2018-08-11T17:51:22.043Z,73
2018-08-11T17:56:52.640Z,73
2018-08-11T18:02:44.546Z,73
2018-08-11T18:07:46.955Z,73
2018-08-11T18:13:21.253Z,74
2018-08-11T18:18:51.617Z,73
2018-08-11T18:24:21.823Z,74
2018-08-11T18:35:15.439Z,74
2018-08-11T18:40:45.619Z,74
2018-08-11T18:46:14.948Z,74
2018-08-11T18:51:45.343Z,74
2018-08-11T18:57:46.573Z,74
2018-08-11T19:02:44.772Z,74
2018-08-11T19:08:13.852Z,74
2018-08-11T19:13:49.328Z,74
2018-08-11T19:19:14.281Z,74
2018-08-11T19:24:43.431Z,74
2018-08-11T19:30:17.664Z,74
2018-08-11T19:35:48.009Z,74
2018-08-11T19:41:13.178Z,75
2018-08-11T19:46:48.734Z,75
2018-08-11T19:52:13.570Z,75
2018-08-11T19:57:47.863Z,75
2018-08-11T20:03:11.976Z,75
2018-08-11T20:08:42.362Z,75
2018-08-11T20:14:17.094Z,75
2018-08-11T20:19:42.488Z,75
2018-08-11T20:25:17.431Z,75
2018-08-11T20:30:47.558Z,76
2018-08-11T20:36:17.723Z,76
2018-08-11T20:41:42.219Z,76
2018-08-11T20:47:12.273Z,76
2018-08-11T20:52:42.397Z,76
2018-08-11T20:58:16.313Z,76
2018-08-11T21:03:40.281Z,76
2018-08-11T21:09:10.609Z,76
2018-08-11T21:14:40.441Z,77
2018-08-11T21:20:14.536Z,77
2018-08-11T21:25:39.565Z,77
2018-08-11T21:31:08.605Z,77
2018-08-11T21:36:38.930Z,77
2018-08-11T21:42:07.698Z,77
2018-08-11T21:47:37.943Z,77
2018-08-11T21:53:07.972Z,77
2018-08-11T21:58:36.725Z,78
2018-08-11T22:04:06.733Z,78
2018-08-11T22:09:35.788Z,78
2018-08-11T22:15:05.768Z,78
2018-08-11T22:20:39.735Z,78
2018-08-11T22:26:08.745Z,78
2018-08-11T22:31:32.938Z,78
2018-08-11T22:37:02.620Z,78
2018-08-11T22:42:37.694Z,78
2018-08-11T22:48:01.958Z,79
2018-08-11T22:53:31.526Z,79
2018-08-11T22:59:05.505Z,79
2018-08-11T23:04:35.369Z,79
2018-08-11T23:10:00.267Z,79
2018-08-11T23:15:30.217Z,79
2018-08-11T23:21:00.413Z,79
2018-08-11T23:26:29.032Z,79
2018-08-11T23:32:04.454Z,79
2018-08-11T23:37:28.389Z,79
2018-08-11T23:42:56.811Z,79
2018-08-11T23:48:26.630Z,79
2018-08-11T23:54:01.618Z,80
2018-08-11T23:59:26.403Z,80
